sensor_id;sensor_type;location;lat;lon;timestamp;temperature;humidity
15259;DHT22;34462;51.368;12.364;2023-03-01T00:01:45;-0.20;99.90
15259;DHT22;34462;51.368;12.364;2023-03-01T00:04:13;-0.30;99.90
15259;DHT22;34462;51.368;12.364;2023-03-01T00:06:43;-0.30;99.90
15259;DHT22;34462;51.368;12.364;2023-03-01T00:09:13;-0.30;99.90
15259;DHT22;34462;51.368;12.364;2023-03-01T00:11:41;-0.30;99.90
15259;DHT22;34462;51.368;12.364;2023-03-01T00:14:09;-0.30;99.90
15259;DHT22;34462;51.368;12.364;2023-03-01T00:16:39;-0.30;99.90
15259;DHT22;34462;51.368;12.364;2023-03-01T00:19:11;-0.40;99.90
15259;DHT22;34462;51.368;12.364;2023-03-01T00:21:41;-0.40;99.90
15259;DHT22;34462;51.368;12.364;2023-03-01T00:24:11;-0.40;99.90
15259;DHT22;34462;51.368;12.364;2023-03-01T00:26:39;-0.40;99.90
15259;DHT22;34462;51.368;12.364;2023-03-01T00:29:08;-0.40;99.90
15259;DHT22;34462;51.368;12.364;2023-03-01T00:31:36;-0.30;99.90
15259;DHT22;34462;51.368;12.364;2023-03-01T00:34:05;-0.30;99.90
15259;DHT22;34462;51.368;12.364;2023-03-01T00:36:35;-0.40;99.90
15259;DHT22;34462;51.368;12.364;2023-03-01T00:39:09;-0.40;99.90
15259;DHT22;34462;51.368;12.364;2023-03-01T00:41:39;-0.40;99.90
15259;DHT22;34462;51.368;12.364;2023-03-01T00:44:07;-0.50;99.90
15259;DHT22;34462;51.368;12.364;2023-03-01T00:46:36;-0.50;99.90
15259;DHT22;34462;51.368;12.364;2023-03-01T00:49:04;-0.60;99.90
15259;DHT22;34462;51.368;12.364;2023-03-01T00:51:33;-0.60;99.90
15259;DHT22;34462;51.368;12.364;2023-03-01T00:54:02;-0.50;99.90
15259;DHT22;34462;51.368;12.364;2023-03-01T00:56:32;-0.50;99.90
15259;DHT22;34462;51.368;12.364;2023-03-01T00:59:01;-0.60;99.90
15259;DHT22;34462;51.368;12.364;2023-03-01T01:01:30;-0.60;99.90
15259;DHT22;34462;51.368;12.364;2023-03-01T01:04:00;-0.50;99.90
15259;DHT22;34462;51.368;12.364;2023-03-01T01:06:32;-0.50;99.90
15259;DHT22;34462;51.368;12.364;2023-03-01T01:09:03;-0.50;99.90
15259;DHT22;34462;51.368;12.364;2023-03-01T01:11:35;-0.50;99.90
15259;DHT22;34462;51.368;12.364;2023-03-01T01:14:03;-0.50;99.90
15259;DHT22;34462;51.368;12.364;2023-03-01T01:16:32;-0.70;99.90
15259;DHT22;34462;51.368;12.364;2023-03-01T01:19:00;-0.70;99.90
15259;DHT22;34462;51.368;12.364;2023-03-01T01:21:29;-0.70;99.90
15259;DHT22;34462;51.368;12.364;2023-03-01T01:23:58;-0.70;99.90
15259;DHT22;34462;51.368;12.364;2023-03-01T01:26:28;-0.80;99.90
15259;DHT22;34462;51.368;12.364;2023-03-01T01:29:00;-0.70;99.90
15259;DHT22;34462;51.368;12.364;2023-03-01T01:31:31;-0.70;99.90
15259;DHT22;34462;51.368;12.364;2023-03-01T01:34:01;-0.60;99.90
15259;DHT22;34462;51.368;12.364;2023-03-01T01:36:32;-0.60;99.90
15259;DHT22;34462;51.368;12.364;2023-03-01T01:39:01;-0.60;99.90
15259;DHT22;34462;51.368;12.364;2023-03-01T01:41:30;-0.60;99.90
15259;DHT22;34462;51.368;12.364;2023-03-01T01:44:18;-0.70;99.90
15259;DHT22;34462;51.368;12.364;2023-03-01T01:46:52;-0.80;99.90
15259;DHT22;34462;51.368;12.364;2023-03-01T01:49:28;-0.90;99.90
15259;DHT22;34462;51.368;12.364;2023-03-01T01:52:07;-1.10;99.90
15259;DHT22;34462;51.368;12.364;2023-03-01T01:54:43;-1.10;99.90
15259;DHT22;34462;51.368;12.364;2023-03-01T01:57:19;-1.20;99.90
15259;DHT22;34462;51.368;12.364;2023-03-01T01:59:54;-1.10;99.90
15259;DHT22;34462;51.368;12.364;2023-03-01T02:02:26;-1.10;99.90
15259;DHT22;34462;51.368;12.364;2023-03-01T02:05:00;-1.10;99.90
15259;DHT22;34462;51.368;12.364;2023-03-01T02:07:37;-0.90;99.90
15259;DHT22;34462;51.368;12.364;2023-03-01T02:10:08;-0.90;99.90
15259;DHT22;34462;51.368;12.364;2023-03-01T02:12:38;-0.90;99.90
15259;DHT22;34462;51.368;12.364;2023-03-01T02:15:09;-0.90;99.90
15259;DHT22;34462;51.368;12.364;2023-03-01T02:17:38;-0.90;99.90
15259;DHT22;34462;51.368;12.364;2023-03-01T02:20:14;-0.90;99.90
15259;DHT22;34462;51.368;12.364;2023-03-01T02:22:49;-1.00;99.90
15259;DHT22;34462;51.368;12.364;2023-03-01T02:25:27;-1.10;99.90
15259;DHT22;34462;51.368;12.364;2023-03-01T02:28:07;-1.10;99.90
15259;DHT22;34462;51.368;12.364;2023-03-01T02:30:40;-1.20;99.90
15259;DHT22;34462;51.368;12.364;2023-03-01T02:33:31;-1.20;99.90
15259;DHT22;34462;51.368;12.364;2023-03-01T02:36:05;-1.20;99.90
15259;DHT22;34462;51.368;12.364;2023-03-01T02:38:36;-1.30;99.90
15259;DHT22;34462;51.368;12.364;2023-03-01T02:41:05;-1.40;99.90
15259;DHT22;34462;51.368;12.364;2023-03-01T02:43:35;-1.50;99.90
15259;DHT22;34462;51.368;12.364;2023-03-01T02:46:07;-1.50;99.90
15259;DHT22;34462;51.368;12.364;2023-03-01T02:48:41;-1.60;99.90
15259;DHT22;34462;51.368;12.364;2023-03-01T02:51:23;-1.60;99.90
15259;DHT22;34462;51.368;12.364;2023-03-01T02:54:12;-1.60;99.90
15259;DHT22;34462;51.368;12.364;2023-03-01T02:56:50;-1.70;99.90
15259;DHT22;34462;51.368;12.364;2023-03-01T02:59:21;-1.60;99.90
15259;DHT22;34462;51.368;12.364;2023-03-01T03:01:53;-1.70;99.90
15259;DHT22;34462;51.368;12.364;2023-03-01T03:04:21;-1.70;99.90
15259;DHT22;34462;51.368;12.364;2023-03-01T03:06:50;-1.70;99.90
15259;DHT22;34462;51.368;12.364;2023-03-01T03:09:19;-1.70;99.90
15259;DHT22;34462;51.368;12.364;2023-03-01T03:11:47;-1.70;99.90
15259;DHT22;34462;51.368;12.364;2023-03-01T03:14:16;-1.60;99.90
15259;DHT22;34462;51.368;12.364;2023-03-01T03:16:47;-1.50;99.90
15259;DHT22;34462;51.368;12.364;2023-03-01T03:19:19;-1.50;99.90
15259;DHT22;34462;51.368;12.364;2023-03-01T03:21:47;-1.50;99.90
15259;DHT22;34462;51.368;12.364;2023-03-01T03:24:16;-1.40;99.90
15259;DHT22;34462;51.368;12.364;2023-03-01T03:26:44;-1.50;99.90
15259;DHT22;34462;51.368;12.364;2023-03-01T03:29:13;-1.60;99.90
15259;DHT22;34462;51.368;12.364;2023-03-01T03:31:41;-1.60;99.90
15259;DHT22;34462;51.368;12.364;2023-03-01T03:34:09;-1.60;99.90
15259;DHT22;34462;51.368;12.364;2023-03-01T03:36:45;-1.60;99.90
15259;DHT22;34462;51.368;12.364;2023-03-01T03:39:14;-1.50;99.90
15259;DHT22;34462;51.368;12.364;2023-03-01T03:41:42;-1.50;99.90
15259;DHT22;34462;51.368;12.364;2023-03-01T03:44:10;-1.40;99.90
15259;DHT22;34462;51.368;12.364;2023-03-01T03:46:38;-1.40;99.90
15259;DHT22;34462;51.368;12.364;2023-03-01T03:49:06;-1.40;99.90
15259;DHT22;34462;51.368;12.364;2023-03-01T03:51:35;-1.40;99.90
15259;DHT22;34462;51.368;12.364;2023-03-01T03:54:04;-1.40;99.90
15259;DHT22;34462;51.368;12.364;2023-03-01T03:56:32;-1.40;99.90
15259;DHT22;34462;51.368;12.364;2023-03-01T03:59:01;-1.30;99.90
15259;DHT22;34462;51.368;12.364;2023-03-01T04:01:29;-1.30;99.90
15259;DHT22;34462;51.368;12.364;2023-03-01T04:03:58;-1.30;99.90
15259;DHT22;34462;51.368;12.364;2023-03-01T04:06:30;-1.30;99.90
15259;DHT22;34462;51.368;12.364;2023-03-01T04:08:59;-1.40;99.90
15259;DHT22;34462;51.368;12.364;2023-03-01T04:11:30;-1.40;99.90
15259;DHT22;34462;51.368;12.364;2023-03-01T04:14:01;-1.40;99.90
15259;DHT22;34462;51.368;12.364;2023-03-01T04:16:31;-1.50;99.90
15259;DHT22;34462;51.368;12.364;2023-03-01T04:18:59;-1.50;99.90
15259;DHT22;34462;51.368;12.364;2023-03-01T04:21:27;-1.60;99.90
15259;DHT22;34462;51.368;12.364;2023-03-01T04:23:56;-1.60;99.90
15259;DHT22;34462;51.368;12.364;2023-03-01T04:26:24;-1.60;99.90
15259;DHT22;34462;51.368;12.364;2023-03-01T04:28:55;-1.60;99.90
15259;DHT22;34462;51.368;12.364;2023-03-01T04:31:23;-1.60;99.90
15259;DHT22;34462;51.368;12.364;2023-03-01T04:33:52;-1.60;99.90
15259;DHT22;34462;51.368;12.364;2023-03-01T04:36:23;-1.70;99.90
15259;DHT22;34462;51.368;12.364;2023-03-01T04:38:53;-1.80;99.90
15259;DHT22;34462;51.368;12.364;2023-03-01T04:41:24;-1.90;99.90
15259;DHT22;34462;51.368;12.364;2023-03-01T04:43:54;-1.80;99.90
15259;DHT22;34462;51.368;12.364;2023-03-01T04:46:23;-1.80;99.90
15259;DHT22;34462;51.368;12.364;2023-03-01T04:48:52;-1.80;99.90
15259;DHT22;34462;51.368;12.364;2023-03-01T04:51:20;-1.70;99.90
15259;DHT22;34462;51.368;12.364;2023-03-01T04:53:48;-1.70;99.90
15259;DHT22;34462;51.368;12.364;2023-03-01T04:56:17;-1.70;99.90
15259;DHT22;34462;51.368;12.364;2023-03-01T04:58:46;-1.80;99.90
15259;DHT22;34462;51.368;12.364;2023-03-01T05:01:18;-1.80;99.90
15259;DHT22;34462;51.368;12.364;2023-03-01T05:03:49;-1.90;99.90
15259;DHT22;34462;51.368;12.364;2023-03-01T05:06:20;-2.20;99.90
15259;DHT22;34462;51.368;12.364;2023-03-01T05:08:49;-1.90;99.90
15259;DHT22;34462;51.368;12.364;2023-03-01T05:11:17;-1.90;99.90
15259;DHT22;34462;51.368;12.364;2023-03-01T05:13:45;-1.90;99.90
15259;DHT22;34462;51.368;12.364;2023-03-01T05:16:13;-1.90;99.90
15259;DHT22;34462;51.368;12.364;2023-03-01T05:18:45;-2.00;99.90
15259;DHT22;34462;51.368;12.364;2023-03-01T05:21:14;-2.00;99.90
15259;DHT22;34462;51.368;12.364;2023-03-01T05:23:44;-2.10;99.90
15259;DHT22;34462;51.368;12.364;2023-03-01T05:26:14;-2.00;99.90
15259;DHT22;34462;51.368;12.364;2023-03-01T05:28:59;-2.00;99.90
15259;DHT22;34462;51.368;12.364;2023-03-01T05:31:27;-2.10;99.90
15259;DHT22;34462;51.368;12.364;2023-03-01T05:33:58;-2.30;99.90
15259;DHT22;34462;51.368;12.364;2023-03-01T05:36:28;-2.30;99.90
15259;DHT22;34462;51.368;12.364;2023-03-01T05:38:56;-2.40;99.90
15259;DHT22;34462;51.368;12.364;2023-03-01T05:41:25;-2.30;99.90
15259;DHT22;34462;51.368;12.364;2023-03-01T05:43:53;-2.50;99.90
15259;DHT22;34462;51.368;12.364;2023-03-01T05:46:21;-2.50;99.90
15259;DHT22;34462;51.368;12.364;2023-03-01T05:48:51;-2.50;99.90
15259;DHT22;34462;51.368;12.364;2023-03-01T05:51:20;-2.50;99.90
15259;DHT22;34462;51.368;12.364;2023-03-01T05:53:49;-2.50;99.90
15259;DHT22;34462;51.368;12.364;2023-03-01T05:56:17;-2.50;99.90
15259;DHT22;34462;51.368;12.364;2023-03-01T05:58:45;-2.50;99.90
15259;DHT22;34462;51.368;12.364;2023-03-01T06:01:15;-2.50;99.90
15259;DHT22;34462;51.368;12.364;2023-03-01T06:03:44;-2.60;99.90
15259;DHT22;34462;51.368;12.364;2023-03-01T06:06:12;-2.60;99.90
15259;DHT22;34462;51.368;12.364;2023-03-01T06:08:41;-2.60;99.90
15259;DHT22;34462;51.368;12.364;2023-03-01T06:11:10;-2.60;99.90
15259;DHT22;34462;51.368;12.364;2023-03-01T06:13:38;-2.50;99.90
15259;DHT22;34462;51.368;12.364;2023-03-01T06:16:07;-2.50;99.90
15259;DHT22;34462;51.368;12.364;2023-03-01T06:18:36;-2.50;99.90
15259;DHT22;34462;51.368;12.364;2023-03-01T06:21:06;-2.20;99.90
15259;DHT22;34462;51.368;12.364;2023-03-01T06:23:35;-2.40;99.90
15259;DHT22;34462;51.368;12.364;2023-03-01T06:26:07;-2.40;99.90
15259;DHT22;34462;51.368;12.364;2023-03-01T06:28:36;-2.40;99.90
15259;DHT22;34462;51.368;12.364;2023-03-01T06:31:05;-2.40;99.90
15259;DHT22;34462;51.368;12.364;2023-03-01T06:33:35;-2.40;99.90
15259;DHT22;34462;51.368;12.364;2023-03-01T06:36:04;-2.30;99.90
15259;DHT22;34462;51.368;12.364;2023-03-01T06:38:32;-2.30;99.90
15259;DHT22;34462;51.368;12.364;2023-03-01T06:41:01;-2.20;99.90
15259;DHT22;34462;51.368;12.364;2023-03-01T06:43:30;-2.10;99.90
15259;DHT22;34462;51.368;12.364;2023-03-01T06:45:59;-2.00;99.90
15259;DHT22;34462;51.368;12.364;2023-03-01T06:48:27;-2.00;99.90
15259;DHT22;34462;51.368;12.364;2023-03-01T06:50:58;-1.90;99.90
15259;DHT22;34462;51.368;12.364;2023-03-01T06:53:26;-1.90;99.90
15259;DHT22;34462;51.368;12.364;2023-03-01T06:55:55;-1.90;99.90
15259;DHT22;34462;51.368;12.364;2023-03-01T06:58:23;-1.70;99.90
15259;DHT22;34462;51.368;12.364;2023-03-01T07:00:53;-1.70;99.90
15259;DHT22;34462;51.368;12.364;2023-03-01T07:03:21;-1.60;99.90
15259;DHT22;34462;51.368;12.364;2023-03-01T07:05:49;-1.50;99.90
15259;DHT22;34462;51.368;12.364;2023-03-01T07:08:19;-1.50;99.90
15259;DHT22;34462;51.368;12.364;2023-03-01T07:10:47;-1.40;99.90
15259;DHT22;34462;51.368;12.364;2023-03-01T07:13:18;-1.30;99.90
15259;DHT22;34462;51.368;12.364;2023-03-01T07:15:46;-1.30;99.90
15259;DHT22;34462;51.368;12.364;2023-03-01T07:18:15;-1.10;99.90
15259;DHT22;34462;51.368;12.364;2023-03-01T07:20:44;-1.00;99.90
15259;DHT22;34462;51.368;12.364;2023-03-01T07:23:12;-0.80;99.90
15259;DHT22;34462;51.368;12.364;2023-03-01T07:25:40;-0.80;99.90
15259;DHT22;34462;51.368;12.364;2023-03-01T07:28:08;-0.70;99.90
15259;DHT22;34462;51.368;12.364;2023-03-01T07:30:36;-0.60;99.90
15259;DHT22;34462;51.368;12.364;2023-03-01T07:33:05;-0.50;99.90
15259;DHT22;34462;51.368;12.364;2023-03-01T07:35:35;-0.40;99.90
15259;DHT22;34462;51.368;12.364;2023-03-01T07:38:04;-0.30;99.90
15259;DHT22;34462;51.368;12.364;2023-03-01T07:40:32;-0.20;99.90
15259;DHT22;34462;51.368;12.364;2023-03-01T07:43:00;0.00;99.90
15259;DHT22;34462;51.368;12.364;2023-03-01T07:45:29;0.10;99.90
15259;DHT22;34462;51.368;12.364;2023-03-01T07:47:57;0.30;99.90
15259;DHT22;34462;51.368;12.364;2023-03-01T07:50:25;0.40;99.90
15259;DHT22;34462;51.368;12.364;2023-03-01T07:52:55;0.50;99.90
15259;DHT22;34462;51.368;12.364;2023-03-01T07:55:23;0.70;99.90
15259;DHT22;34462;51.368;12.364;2023-03-01T07:57:51;0.80;99.90
15259;DHT22;34462;51.368;12.364;2023-03-01T08:00:20;0.90;99.90
15259;DHT22;34462;51.368;12.364;2023-03-01T08:02:48;1.00;99.90
15259;DHT22;34462;51.368;12.364;2023-03-01T08:05:16;1.20;99.90
15259;DHT22;34462;51.368;12.364;2023-03-01T08:07:45;1.30;99.90
15259;DHT22;34462;51.368;12.364;2023-03-01T08:10:14;1.50;99.90
15259;DHT22;34462;51.368;12.364;2023-03-01T08:12:43;1.50;99.90
15259;DHT22;34462;51.368;12.364;2023-03-01T08:15:11;1.60;99.90
15259;DHT22;34462;51.368;12.364;2023-03-01T08:17:39;1.60;99.90
15259;DHT22;34462;51.368;12.364;2023-03-01T08:20:08;1.60;99.90
15259;DHT22;34462;51.368;12.364;2023-03-01T08:22:39;1.80;99.90
15259;DHT22;34462;51.368;12.364;2023-03-01T08:25:07;1.80;99.90
15259;DHT22;34462;51.368;12.364;2023-03-01T08:27:37;2.00;99.90
15259;DHT22;34462;51.368;12.364;2023-03-01T08:30:07;2.20;99.90
15259;DHT22;34462;51.368;12.364;2023-03-01T08:32:37;2.30;99.90
15259;DHT22;34462;51.368;12.364;2023-03-01T08:35:06;2.40;99.90
15259;DHT22;34462;51.368;12.364;2023-03-01T08:37:35;2.50;99.90
15259;DHT22;34462;51.368;12.364;2023-03-01T08:40:04;2.60;99.90
15259;DHT22;34462;51.368;12.364;2023-03-01T08:42:37;2.60;99.90
15259;DHT22;34462;51.368;12.364;2023-03-01T08:45:07;2.70;99.90
15259;DHT22;34462;51.368;12.364;2023-03-01T08:47:36;2.80;99.90
15259;DHT22;34462;51.368;12.364;2023-03-01T08:50:05;3.00;99.90
15259;DHT22;34462;51.368;12.364;2023-03-01T08:52:34;3.10;99.90
15259;DHT22;34462;51.368;12.364;2023-03-01T08:55:02;3.10;99.90
15259;DHT22;34462;51.368;12.364;2023-03-01T08:57:31;3.20;99.90
15259;DHT22;34462;51.368;12.364;2023-03-01T09:00:00;3.30;99.90
15259;DHT22;34462;51.368;12.364;2023-03-01T09:02:29;3.20;99.90
15259;DHT22;34462;51.368;12.364;2023-03-01T09:04:58;3.10;99.90
15259;DHT22;34462;51.368;12.364;2023-03-01T09:07:26;3.30;99.90
15259;DHT22;34462;51.368;12.364;2023-03-01T09:09:55;3.20;99.90
15259;DHT22;34462;51.368;12.364;2023-03-01T09:12:23;3.30;99.90
15259;DHT22;34462;51.368;12.364;2023-03-01T09:14:52;3.40;99.90
15259;DHT22;34462;51.368;12.364;2023-03-01T09:17:22;3.40;99.90
15259;DHT22;34462;51.368;12.364;2023-03-01T09:19:50;3.50;99.90
15259;DHT22;34462;51.368;12.364;2023-03-01T09:22:18;3.50;99.90
15259;DHT22;34462;51.368;12.364;2023-03-01T09:24:46;3.60;99.90
15259;DHT22;34462;51.368;12.364;2023-03-01T09:27:14;3.50;99.90
15259;DHT22;34462;51.368;12.364;2023-03-01T09:29:45;3.60;99.90
15259;DHT22;34462;51.368;12.364;2023-03-01T09:32:13;3.50;99.90
15259;DHT22;34462;51.368;12.364;2023-03-01T09:34:43;3.50;99.90
15259;DHT22;34462;51.368;12.364;2023-03-01T09:37:32;3.70;99.90
15259;DHT22;34462;51.368;12.364;2023-03-01T09:40:01;3.80;99.90
15259;DHT22;34462;51.368;12.364;2023-03-01T09:42:32;3.80;99.90
15259;DHT22;34462;51.368;12.364;2023-03-01T09:45:05;3.90;99.90
15259;DHT22;34462;51.368;12.364;2023-03-01T09:47:40;4.00;99.90
15259;DHT22;34462;51.368;12.364;2023-03-01T09:50:12;4.00;99.90
15259;DHT22;34462;51.368;12.364;2023-03-01T09:52:46;4.10;99.90
15259;DHT22;34462;51.368;12.364;2023-03-01T09:55:26;4.00;99.90
15259;DHT22;34462;51.368;12.364;2023-03-01T09:58:05;4.10;99.90
15259;DHT22;34462;51.368;12.364;2023-03-01T10:00:46;4.00;99.90
15259;DHT22;34462;51.368;12.364;2023-03-01T10:03:20;4.10;99.90
15259;DHT22;34462;51.368;12.364;2023-03-01T10:05:58;4.10;99.90
15259;DHT22;34462;51.368;12.364;2023-03-01T10:08:36;4.10;99.90
15259;DHT22;34462;51.368;12.364;2023-03-01T10:11:21;4.10;99.90
15259;DHT22;34462;51.368;12.364;2023-03-01T10:13:56;4.20;99.90
15259;DHT22;34462;51.368;12.364;2023-03-01T10:16:37;4.30;99.90
15259;DHT22;34462;51.368;12.364;2023-03-01T10:19:14;4.30;99.90
15259;DHT22;34462;51.368;12.364;2023-03-01T10:21:49;4.40;99.90
15259;DHT22;34462;51.368;12.364;2023-03-01T10:24:19;4.50;99.90
15259;DHT22;34462;51.368;12.364;2023-03-01T10:26:53;4.70;99.90
15259;DHT22;34462;51.368;12.364;2023-03-01T10:29:26;4.40;99.90
15259;DHT22;34462;51.368;12.364;2023-03-01T10:32:04;4.50;99.90
15259;DHT22;34462;51.368;12.364;2023-03-01T10:34:35;4.50;99.90
15259;DHT22;34462;51.368;12.364;2023-03-01T10:37:11;4.60;99.90
15259;DHT22;34462;51.368;12.364;2023-03-01T10:39:56;4.60;99.90
15259;DHT22;34462;51.368;12.364;2023-03-01T10:42:28;4.70;99.90
15259;DHT22;34462;51.368;12.364;2023-03-01T10:44:58;4.80;99.90
15259;DHT22;34462;51.368;12.364;2023-03-01T10:47:43;5.00;99.90
15259;DHT22;34462;51.368;12.364;2023-03-01T10:50:19;5.00;99.90
15259;DHT22;34462;51.368;12.364;2023-03-01T10:52:59;4.90;99.90
15259;DHT22;34462;51.368;12.364;2023-03-01T10:55:33;5.00;99.90
15259;DHT22;34462;51.368;12.364;2023-03-01T10:58:09;5.00;99.90
15259;DHT22;34462;51.368;12.364;2023-03-01T11:00:48;5.20;99.90
15259;DHT22;34462;51.368;12.364;2023-03-01T11:03:21;5.00;99.90
15259;DHT22;34462;51.368;12.364;2023-03-01T11:06:00;4.80;99.90
15259;DHT22;34462;51.368;12.364;2023-03-01T11:08:40;4.90;99.90
15259;DHT22;34462;51.368;12.364;2023-03-01T11:11:21;4.90;99.90
15259;DHT22;34462;51.368;12.364;2023-03-01T11:13:55;4.90;99.90
15259;DHT22;34462;51.368;12.364;2023-03-01T11:16:28;5.00;99.90
15259;DHT22;34462;51.368;12.364;2023-03-01T11:19:14;5.10;99.90
15259;DHT22;34462;51.368;12.364;2023-03-01T11:21:49;5.00;99.90
15259;DHT22;34462;51.368;12.364;2023-03-01T11:24:36;4.80;99.90
15259;DHT22;34462;51.368;12.364;2023-03-01T11:27:17;4.80;99.90
15259;DHT22;34462;51.368;12.364;2023-03-01T11:29:52;4.70;99.90
15259;DHT22;34462;51.368;12.364;2023-03-01T11:32:26;4.80;99.90
15259;DHT22;34462;51.368;12.364;2023-03-01T11:35:03;4.80;99.90
15259;DHT22;34462;51.368;12.364;2023-03-01T11:37:41;4.80;99.90
15259;DHT22;34462;51.368;12.364;2023-03-01T11:40:24;4.90;99.90
15259;DHT22;34462;51.368;12.364;2023-03-01T11:43:01;5.10;99.90
15259;DHT22;34462;51.368;12.364;2023-03-01T11:45:47;5.10;99.90
15259;DHT22;34462;51.368;12.364;2023-03-01T11:48:40;5.20;99.90
15259;DHT22;34462;51.368;12.364;2023-03-01T11:51:24;5.30;99.90
15259;DHT22;34462;51.368;12.364;2023-03-01T11:54:06;5.40;99.90
15259;DHT22;34462;51.368;12.364;2023-03-01T11:56:46;5.40;99.90
15259;DHT22;34462;51.368;12.364;2023-03-01T12:02:46;5.40;99.90
15259;DHT22;34462;51.368;12.364;2023-03-01T12:09:00;5.20;99.90
15259;DHT22;34462;51.368;12.364;2023-03-01T12:11:46;5.30;99.90
15259;DHT22;34462;51.368;12.364;2023-03-01T12:14:59;5.70;99.90
15259;DHT22;34462;51.368;12.364;2023-03-01T12:18:10;6.10;99.90
15259;DHT22;34462;51.368;12.364;2023-03-01T12:20:58;6.20;99.90
15259;DHT22;34462;51.368;12.364;2023-03-01T12:23:58;6.20;99.90
15259;DHT22;34462;51.368;12.364;2023-03-01T12:27:10;6.10;99.90
15259;DHT22;34462;51.368;12.364;2023-03-01T12:29:52;6.00;99.90
15259;DHT22;34462;51.368;12.364;2023-03-01T12:32:39;6.00;99.90
15259;DHT22;34462;51.368;12.364;2023-03-01T12:35:33;5.80;99.90
15259;DHT22;34462;51.368;12.364;2023-03-01T12:41:31;5.70;99.90
15259;DHT22;34462;51.368;12.364;2023-03-01T12:47:26;5.90;99.90
15259;DHT22;34462;51.368;12.364;2023-03-01T12:50:12;6.20;99.90
15259;DHT22;34462;51.368;12.364;2023-03-01T12:52:50;6.60;99.90
15259;DHT22;34462;51.368;12.364;2023-03-01T12:55:28;6.80;99.90
15259;DHT22;34462;51.368;12.364;2023-03-01T12:58:07;7.00;99.90
15259;DHT22;34462;51.368;12.364;2023-03-01T13:01:05;7.10;99.90
15259;DHT22;34462;51.368;12.364;2023-03-01T13:03:57;7.10;99.90
15259;DHT22;34462;51.368;12.364;2023-03-01T13:06:51;7.00;99.90
15259;DHT22;34462;51.368;12.364;2023-03-01T13:09:31;6.90;99.90
15259;DHT22;34462;51.368;12.364;2023-03-01T13:15:27;6.80;99.90
15259;DHT22;34462;51.368;12.364;2023-03-01T13:18:00;6.70;99.90
15259;DHT22;34462;51.368;12.364;2023-03-01T13:20:33;6.70;99.90
15259;DHT22;34462;51.368;12.364;2023-03-01T13:23:23;6.70;99.90
15259;DHT22;34462;51.368;12.364;2023-03-01T13:26:13;6.60;99.90
15259;DHT22;34462;51.368;12.364;2023-03-01T13:28:50;6.60;99.90
15259;DHT22;34462;51.368;12.364;2023-03-01T13:34:50;6.50;99.90
15259;DHT22;34462;51.368;12.364;2023-03-01T13:37:28;6.50;99.90
15259;DHT22;34462;51.368;12.364;2023-03-01T13:40:01;6.50;99.90
15259;DHT22;34462;51.368;12.364;2023-03-01T13:42:55;6.50;99.90
15259;DHT22;34462;51.368;12.364;2023-03-01T13:45:38;6.60;99.90
15259;DHT22;34462;51.368;12.364;2023-03-01T13:48:18;6.70;99.90
15259;DHT22;34462;51.368;12.364;2023-03-01T13:50:54;6.60;99.90
15259;DHT22;34462;51.368;12.364;2023-03-01T13:53:30;6.70;99.90
15259;DHT22;34462;51.368;12.364;2023-03-01T13:56:03;6.70;99.90
15259;DHT22;34462;51.368;12.364;2023-03-01T13:58:53;6.70;99.90
15259;DHT22;34462;51.368;12.364;2023-03-01T14:01:28;6.60;99.90
15259;DHT22;34462;51.368;12.364;2023-03-01T14:03:58;6.60;99.90
15259;DHT22;34462;51.368;12.364;2023-03-01T14:06:28;6.50;99.90
15259;DHT22;34462;51.368;12.364;2023-03-01T14:09:04;6.60;99.90
15259;DHT22;34462;51.368;12.364;2023-03-01T14:12:19;6.60;99.90
15259;DHT22;34462;51.368;12.364;2023-03-01T14:15:00;6.70;99.90
15259;DHT22;34462;51.368;12.364;2023-03-01T14:17:49;6.70;99.90
15259;DHT22;34462;51.368;12.364;2023-03-01T14:20:25;6.70;99.90
15259;DHT22;34462;51.368;12.364;2023-03-01T14:22:58;6.80;99.90
15259;DHT22;34462;51.368;12.364;2023-03-01T14:25:31;6.80;99.90
15259;DHT22;34462;51.368;12.364;2023-03-01T14:28:04;6.80;99.90
15259;DHT22;34462;51.368;12.364;2023-03-01T14:30:45;6.70;99.90
15259;DHT22;34462;51.368;12.364;2023-03-01T14:33:20;6.70;99.90
15259;DHT22;34462;51.368;12.364;2023-03-01T14:35:56;6.70;99.90
15259;DHT22;34462;51.368;12.364;2023-03-01T14:38:33;6.70;99.90
15259;DHT22;34462;51.368;12.364;2023-03-01T14:41:04;6.70;99.90
15259;DHT22;34462;51.368;12.364;2023-03-01T14:43:35;6.70;99.90
15259;DHT22;34462;51.368;12.364;2023-03-01T14:46:15;6.60;99.90
15259;DHT22;34462;51.368;12.364;2023-03-01T14:48:49;6.60;99.90
15259;DHT22;34462;51.368;12.364;2023-03-01T14:51:18;6.60;99.90
15259;DHT22;34462;51.368;12.364;2023-03-01T14:53:46;6.60;99.90
15259;DHT22;34462;51.368;12.364;2023-03-01T14:56:17;6.60;99.90
15259;DHT22;34462;51.368;12.364;2023-03-01T14:58:46;6.50;99.90
15259;DHT22;34462;51.368;12.364;2023-03-01T15:01:21;6.50;99.90
15259;DHT22;34462;51.368;12.364;2023-03-01T15:03:50;6.50;99.90
15259;DHT22;34462;51.368;12.364;2023-03-01T15:06:20;6.40;99.90
15259;DHT22;34462;51.368;12.364;2023-03-01T15:08:52;6.40;99.90
15259;DHT22;34462;51.368;12.364;2023-03-01T15:11:27;6.30;99.90
15259;DHT22;34462;51.368;12.364;2023-03-01T15:13:57;6.40;99.90
15259;DHT22;34462;51.368;12.364;2023-03-01T15:16:29;6.30;99.90
15259;DHT22;34462;51.368;12.364;2023-03-01T15:19:00;6.20;99.90
15259;DHT22;34462;51.368;12.364;2023-03-01T15:21:32;6.10;99.90
15259;DHT22;34462;51.368;12.364;2023-03-01T15:24:06;6.10;99.90
15259;DHT22;34462;51.368;12.364;2023-03-01T15:26:51;6.00;99.90
15259;DHT22;34462;51.368;12.364;2023-03-01T15:29:25;6.00;99.90
15259;DHT22;34462;51.368;12.364;2023-03-01T15:31:59;5.90;99.90
15259;DHT22;34462;51.368;12.364;2023-03-01T15:34:34;5.90;99.90
15259;DHT22;34462;51.368;12.364;2023-03-01T15:37:05;5.70;99.90
15259;DHT22;34462;51.368;12.364;2023-03-01T15:39:55;5.70;99.90
15259;DHT22;34462;51.368;12.364;2023-03-01T15:42:36;5.80;99.90
15259;DHT22;34462;51.368;12.364;2023-03-01T15:45:08;5.70;99.90
15259;DHT22;34462;51.368;12.364;2023-03-01T15:47:40;5.70;99.90
15259;DHT22;34462;51.368;12.364;2023-03-01T15:50:19;5.70;99.90
15259;DHT22;34462;51.368;12.364;2023-03-01T15:52:51;5.60;99.90
15259;DHT22;34462;51.368;12.364;2023-03-01T15:55:21;5.60;99.90
15259;DHT22;34462;51.368;12.364;2023-03-01T15:57:58;5.50;99.90
15259;DHT22;34462;51.368;12.364;2023-03-01T16:00:28;5.50;99.90
15259;DHT22;34462;51.368;12.364;2023-03-01T16:02:58;5.40;99.90
15259;DHT22;34462;51.368;12.364;2023-03-01T16:05:28;5.40;99.90
15259;DHT22;34462;51.368;12.364;2023-03-01T16:07:58;5.50;99.90
15259;DHT22;34462;51.368;12.364;2023-03-01T16:10:27;5.40;99.90
15259;DHT22;34462;51.368;12.364;2023-03-01T16:12:56;5.40;99.90
15259;DHT22;34462;51.368;12.364;2023-03-01T16:15:26;5.30;99.90
15259;DHT22;34462;51.368;12.364;2023-03-01T16:18:00;5.20;99.90
15259;DHT22;34462;51.368;12.364;2023-03-01T16:20:29;5.00;99.90